Time;durP1;ratioP1;P1;durP2;ratioP2;P2;SDS_P1;SDS_P2;PMS_P1;PMS_P2;Temp;Humidity;BMP_temperature;BMP_pressure;BME280_temperature;BME280_humidity;BME280_pressure;Samples;Min_cycle;Max_cycle;Signal;HPM_P1;HPM_P2
2022/01/16 00:06:13;;;;;;;3.33;1.35;;;;;;;-0.89;58.86;98662.09;4892313;29;20092;-76
2022/01/16 00:08:39;;;;;;;2.28;1.05;;;;;;;-1.08;58.99;98610.66;4889646;29;20401;-76
2022/01/16 00:11:08;;;;;;;5.93;1.48;;;;;;;-1.06;58.02;98629.44;4889964;29;20502;-76
2022/01/16 00:13:34;;;;;;;2.35;1.10;;;;;;;-0.97;58.97;98664.50;4879395;29;20043;-75
2022/01/16 00:15:59;;;;;;;1.92;1.10;;;;;;;-1.53;58.78;98584.25;4900799;29;20542;-75
2022/01/16 00:18:28;;;;;;;2.90;1.17;;;;;;;-1.52;58.21;98602.16;4911901;29;20134;-75
2022/01/16 00:20:55;;;;;;;3.05;1.30;;;;;;;-1.48;58.90;98617.53;4911083;29;20036;-76
2022/01/16 00:23:26;;;;;;;3.88;1.20;;;;;;;-1.31;59.26;98644.28;4925810;29;20519;-74
2022/01/16 00:25:55;;;;;;;3.47;1.20;;;;;;;-1.44;58.99;98640.59;4908071;29;20061;-74
2022/01/16 00:28:22;;;;;;;2.60;1.23;;;;;;;-1.39;58.88;98648.34;4911177;29;20067;-77
2022/01/16 00:30:48;;;;;;;2.17;1.00;;;;;;;-1.33;58.75;98639.97;4912195;29;20104;-75
2022/01/16 00:33:17;;;;;;;2.33;1.17;;;;;;;-1.43;59.03;98631.25;4915870;29;20047;-76
2022/01/16 00:35:45;;;;;;;2.45;1.30;;;;;;;-1.42;59.23;98645.72;4885485;29;20571;-75
2022/01/16 00:38:11;;;;;;;2.33;1.30;;;;;;;-1.45;59.16;98645.69;4909610;29;20101;-74
2022/01/16 00:40:36;;;;;;;4.45;1.60;;;;;;;-1.50;59.16;98648.13;4914517;29;20477;-74
2022/01/16 00:43:03;;;;;;;1.70;1.10;;;;;;;-1.45;58.86;98654.19;4912320;29;20040;-75
2022/01/16 00:45:33;;;;;;;2.10;1.08;;;;;;;-1.44;59.26;98643.16;4910696;29;20079;-76
2022/01/16 00:48:01;;;;;;;1.35;0.90;;;;;;;-1.29;59.27;98678.34;4909307;29;20512;-75
2022/01/16 00:50:27;;;;;;;1.95;1.20;;;;;;;-1.33;59.04;98661.25;4907015;29;20484;-78
2022/01/16 00:52:53;;;;;;;1.98;1.10;;;;;;;-1.26;58.43;98672.44;4906864;29;20040;-73
2022/01/16 00:55:19;;;;;;;1.63;1.02;;;;;;;-1.18;59.64;98687.91;4908614;29;20046;-74
2022/01/16 00:57:44;;;;;;;1.92;0.90;;;;;;;-1.09;59.63;98683.00;4900869;29;20043;-75
2022/01/16 01:00:11;;;;;;;2.40;1.10;;;;;;;-0.99;58.96;98699.38;4909666;29;20173;-78
2022/01/16 01:02:36;;;;;;;3.75;1.15;;;;;;;-1.02;59.68;98689.97;4896211;29;20055;-78
2022/01/16 01:05:02;;;;;;;1.92;1.30;;;;;;;-0.92;58.72;98714.00;4895757;29;20039;-76
2022/01/16 01:07:28;;;;;;;3.40;1.05;;;;;;;-0.98;59.11;98699.38;4909516;29;20680;-73
2022/01/16 01:09:54;;;;;;;2.53;1.20;;;;;;;-0.94;59.27;98713.09;4905577;29;20146;-74
2022/01/16 01:12:28;;;;;;;2.22;1.20;;;;;;;-0.97;59.38;98703.66;4906677;29;20088;-74
2022/01/16 01:15:10;;;;;;;2.08;1.00;;;;;;;-0.79;59.59;98725.31;4910373;29;20063;-75
2022/01/16 01:17:46;;;;;;;2.35;1.15;;;;;;;-0.70;59.43;98734.84;4902195;29;20048;-74
2022/01/16 01:20:16;;;;;;;2.63;1.30;;;;;;;-0.61;58.76;98735.00;4898542;29;20044;-77
2022/01/16 01:22:43;;;;;;;2.00;1.20;;;;;;;-0.53;59.40;98743.69;4914150;29;20043;-73
2022/01/16 01:25:11;;;;;;;2.75;1.20;;;;;;;-0.52;59.39;98739.44;4903127;29;20170;-76
2022/01/16 01:27:37;;;;;;;2.70;1.05;;;;;;;-0.45;58.79;98754.06;4918251;29;20124;-75
2022/01/16 01:30:09;;;;;;;2.83;1.30;;;;;;;-0.43;59.02;98747.28;4924357;29;20043;-74
2022/01/16 01:32:39;;;;;;;3.50;1.15;;;;;;;-0.47;58.56;98738.72;4955525;29;20048;-74
2022/01/16 01:35:07;;;;;;;3.13;1.40;;;;;;;-0.25;58.19;98779.13;4946224;29;20434;-75
2022/01/16 01:37:33;;;;;;;3.13;1.05;;;;;;;-0.31;58.90;98770.50;4900574;29;20044;-74
2022/01/16 01:39:59;;;;;;;2.85;1.10;;;;;;;-0.37;58.36;98779.75;4903380;29;20034;-74
2022/01/16 01:42:35;;;;;;;2.92;1.40;;;;;;;-0.41;59.27;98758.41;4932330;29;20026;-75
2022/01/16 01:51:04;;;;;;;3.63;1.30;;;;;;;-0.42;58.71;98759.22;4943532;29;20047;-75
2022/01/16 01:53:30;;;;;;;2.20;1.15;;;;;;;-0.32;58.27;98788.38;4923543;29;20060;-73
2022/01/16 01:55:56;;;;;;;2.75;1.10;;;;;;;-0.46;58.62;98786.44;4926070;29;20091;-74
2022/01/16 01:58:21;;;;;;;3.65;1.40;;;;;;;-0.47;58.31;98794.06;4911268;29;20054;-75
2022/01/16 02:00:48;;;;;;;2.38;1.17;;;;;;;-0.33;58.92;98820.75;4931175;29;20987;-74
2022/01/16 02:03:55;;;;;;;2.00;1.20;;;;;;;-0.29;59.05;98825.94;4895737;29;20066;-75
2022/01/16 02:06:02;;;;;;;4.35;1.10;;;;;;;-0.37;59.01;98830.91;4905181;29;20110;-75
2022/01/16 02:08:28;;;;;;;2.47;1.10;;;;;;;-0.47;58.09;98840.94;4911884;29;20047;-74
2022/01/16 02:10:56;;;;;;;2.22;1.02;;;;;;;-0.44;58.21;98839.28;4932564;29;20059;-74
2022/01/16 02:13:30;;;;;;;2.83;1.10;;;;;;;-0.35;59.03;98859.91;4939095;29;20035;-73
2022/01/16 02:34:38;;;;;;;2.85;1.20;;;;;;;-0.54;58.18;98707.88;4917008;29;20043;-74
2022/01/16 02:37:09;;;;;;;2.03;1.00;;;;;;;-0.61;58.13;98765.69;4927400;29;20123;-74
2022/01/16 02:39:38;;;;;;;2.25;1.10;;;;;;;-0.49;57.35;98832.38;4931887;29;20048;-74
2022/01/16 02:42:06;;;;;;;3.30;1.40;;;;;;;-0.45;57.58;98869.09;4914340;29;20055;-74
2022/01/16 02:44:44;;;;;;;3.25;1.20;;;;;;;-0.51;56.94;98876.63;4940629;29;20067;-76
2022/01/16 02:47:12;;;;;;;1.95;1.08;;;;;;;-0.65;57.71;98798.00;4948743;29;20507;-74
2022/01/16 02:49:43;;;;;;;2.47;0.90;;;;;;;-0.92;57.14;98786.38;4919175;29;20036;-73
2022/01/16 02:52:13;;;;;;;2.75;1.00;;;;;;;-0.92;57.41;98846.81;4915881;29;20075;-76
2022/01/16 02:54:41;;;;;;;1.73;0.90;;;;;;;-0.94;56.95;98879.97;4900695;29;20044;-74
2022/01/16 02:57:12;;;;;;;3.53;1.25;;;;;;;-1.02;57.41;98827.88;4937782;29;20141;-74
2022/01/16 02:59:39;;;;;;;2.10;0.93;;;;;;;-0.90;57.05;98817.06;4936692;29;20055;-77
2022/01/16 03:02:05;;;;;;;1.83;1.00;;;;;;;-0.93;56.80;98856.16;4936959;29;20078;-73
2022/01/16 03:04:31;;;;;;;2.17;1.10;;;;;;;-0.91;57.32;98868.97;4928059;29;20124;-74
2022/01/16 03:07:03;;;;;;;1.45;0.98;;;;;;;-0.91;57.84;98862.16;4917229;29;20048;-75
2022/01/16 03:09:45;;;;;;;4.82;1.08;;;;;;;-1.02;57.35;98860.19;4936746;29;20043;-76
2022/01/16 03:12:10;;;;;;;2.37;1.13;;;;;;;-1.07;57.53;98865.22;4926674;29;20048;-75
2022/01/16 03:14:36;;;;;;;2.25;1.00;;;;;;;-1.37;56.87;98831.34;4953898;28;20829;-75
2022/01/16 03:17:02;;;;;;;3.25;1.08;;;;;;;-1.03;57.41;98894.22;4949583;29;20079;-75
2022/01/16 03:22:12;;;;;;;2.95;1.33;;;;;;;-1.25;57.05;98881.84;4902693;29;20054;-74
2022/01/16 03:24:45;;;;;;;2.72;0.98;;;;;;;-1.30;57.13;98905.50;4932564;29;20066;-75
2022/01/16 03:27:14;;;;;;;2.58;1.10;;;;;;;-1.28;57.50;98924.28;4917265;29;20500;-74
2022/01/16 03:29:43;;;;;;;2.92;1.00;;;;;;;-1.35;57.24;98912.22;4911650;29;20101;-77
2022/01/16 03:32:12;;;;;;;2.33;1.00;;;;;;;-1.39;57.39;98927.44;4915714;29;20071;-74
2022/01/16 03:34:38;;;;;;;1.73;1.00;;;;;;;-1.45;57.10;98904.31;4931994;29;20044;-76
2022/01/16 03:37:04;;;;;;;3.55;1.30;;;;;;;-1.46;56.96;98909.38;4918389;29;20434;-76
2022/01/16 03:39:30;;;;;;;2.08;1.20;;;;;;;-1.47;57.20;98936.56;4931257;29;20069;-72
2022/01/16 03:41:58;;;;;;;3.13;1.30;;;;;;;-1.74;56.80;98914.63;4886220;29;20368;-73
2022/01/16 03:44:24;;;;;;;1.58;1.10;;;;;;;-1.52;57.09;98936.47;4913571;29;20503;-74
2022/01/16 03:46:50;;;;;;;1.55;0.90;;;;;;;-1.47;57.51;98943.38;4912188;29;20046;-75
2022/01/16 03:49:22;;;;;;;2.00;0.90;;;;;;;-1.44;57.39;98938.38;4914009;29;20130;-74
2022/01/16 03:51:50;;;;;;;1.83;1.08;;;;;;;-1.45;57.46;98946.84;4909951;29;20499;-76
2022/01/16 03:54:20;;;;;;;3.40;0.85;;;;;;;-1.32;57.35;98953.97;4902183;29;20051;-75
2022/01/16 03:56:46;;;;;;;1.45;0.90;;;;;;;-1.29;56.58;98946.41;4911600;29;20050;-73
2022/01/16 03:59:12;;;;;;;1.75;0.90;;;;;;;-1.43;56.91;98932.41;4901234;29;20070;-75
2022/01/16 04:01:38;;;;;;;2.45;1.05;;;;;;;-1.30;57.10;98962.53;4931657;29;20099;-74
2022/01/16 04:04:04;;;;;;;1.80;1.08;;;;;;;-1.26;57.39;98964.34;4900694;29;20043;-75
2022/01/16 04:06:30;;;;;;;1.38;1.10;;;;;;;-1.22;56.68;98966.16;4914502;29;20058;-73
2022/01/16 04:08:56;;;;;;;2.75;1.10;;;;;;;-1.28;57.03;98955.78;4933282;29;20039;-74
2022/01/16 04:11:24;;;;;;;1.33;0.95;;;;;;;-1.30;56.88;98942.13;4912157;29;20396;-76
2022/01/16 04:13:52;;;;;;;2.00;0.98;;;;;;;-1.09;57.08;98962.19;4945140;29;20046;-73
2022/01/16 04:16:20;;;;;;;2.17;1.02;;;;;;;-1.08;56.86;98966.47;4929992;29;20056;-76
2022/01/16 04:18:50;;;;;;;2.03;1.10;;;;;;;-1.07;56.92;98964.81;4914728;29;20047;-75
2022/01/16 04:21:23;;;;;;;1.90;1.02;;;;;;;-0.91;56.51;98976.25;4913886;29;20052;-74
2022/01/16 04:23:50;;;;;;;2.38;0.90;;;;;;;-0.83;56.53;98986.66;4929681;29;21367;-75
2022/01/16 04:26:17;;;;;;;1.15;0.77;;;;;;;-0.81;56.20;98983.31;4911295;29;20043;-76
2022/01/16 04:28:43;;;;;;;1.85;1.08;;;;;;;-0.91;56.28;98963.50;4898597;29;20051;-74
2022/01/16 04:31:09;;;;;;;2.33;1.20;;;;;;;-0.89;56.47;98950.75;4919161;29;20043;-74
2022/01/16 04:33:35;;;;;;;1.88;1.10;;;;;;;-0.71;56.19;98992.06;4900529;29;20491;-75
2022/01/16 04:36:02;;;;;;;2.83;1.30;;;;;;;-0.84;55.88;98982.38;4912656;29;20052;-74
2022/01/16 04:38:28;;;;;;;6.20;1.20;;;;;;;-0.73;55.84;98990.31;4916796;29;20138;-73
2022/01/16 04:43:48;;;;;;;1.95;1.10;;;;;;;-0.75;56.16;98992.81;4927725;29;20047;-74
2022/01/16 04:46:15;;;;;;;1.85;0.95;;;;;;;-0.84;55.99;98972.16;4927164;29;20079;-73
2022/01/16 04:48:43;;;;;;;1.70;1.00;;;;;;;-0.74;55.96;98997.09;4932869;29;20050;-75
2022/01/16 04:51:09;;;;;;;3.42;1.10;;;;;;;-0.72;55.84;99000.53;4916889;29;20754;-75
2022/01/16 04:53:35;;;;;;;2.60;1.35;;;;;;;-0.66;55.45;98994.75;4925414;29;20051;-73
2022/01/16 04:56:04;;;;;;;1.77;0.90;;;;;;;-0.64;55.83;98996.50;4937436;29;20047;-77
2022/01/16 04:58:30;;;;;;;1.90;0.93;;;;;;;-0.78;55.90;98983.38;4921255;29;20078;-74
2022/01/16 05:00:58;;;;;;;3.63;1.23;;;;;;;-0.71;55.88;98984.38;4919166;29;20030;-73
2022/01/16 05:03:25;;;;;;;2.38;0.95;;;;;;;-0.73;55.47;99003.94;4928845;29;20050;-73
2022/01/16 05:05:51;;;;;;;1.45;0.90;;;;;;;-0.77;55.73;99020.00;4915924;29;20793;-76
2022/01/16 05:08:17;;;;;;;1.95;0.80;;;;;;;-0.89;55.32;99006.94;4930366;29;20511;-74
2022/01/16 05:10:43;;;;;;;2.47;0.85;;;;;;;-0.86;55.93;99025.75;4935227;29;20041;-75
2022/01/16 05:18:37;;;;;;;3.50;1.10;;;;;;;-0.68;55.75;99033.00;4909661;29;20044;-73
2022/01/16 05:21:06;;;;;;;1.80;1.17;;;;;;;-0.76;55.49;99032.84;4899007;29;20043;-73
2022/01/16 05:23:33;;;;;;;1.58;0.90;;;;;;;-0.74;55.28;99040.53;4936378;29;20044;-76
2022/01/16 05:26:00;;;;;;;3.00;1.13;;;;;;;-0.77;55.38;99055.78;4912720;29;20032;-73
2022/01/16 05:28:27;;;;;;;1.85;1.00;;;;;;;-0.80;55.95;99056.56;4929619;29;20075;-75
2022/01/16 05:30:53;;;;;;;1.70;0.88;;;;;;;-0.77;55.91;99055.78;4911709;29;20102;-75
2022/01/16 05:33:19;;;;;;;3.42;0.98;;;;;;;-0.72;55.97;99072.09;4908571;29;20036;-77
2022/01/16 05:35:45;;;;;;;2.92;0.90;;;;;;;-0.64;55.38;99070.59;4913552;29;20038;-75
2022/01/16 05:38:11;;;;;;;3.10;0.95;;;;;;;-0.60;55.91;99081.75;4929553;29;20638;-75
2022/01/16 05:40:38;;;;;;;2.13;1.00;;;;;;;-0.60;55.24;99074.09;4908444;29;20407;-74
2022/01/16 05:43:04;;;;;;;1.52;0.70;;;;;;;-0.56;55.07;99081.00;4912352;29;20043;-74
2022/01/16 05:45:30;;;;;;;1.50;0.90;;;;;;;-0.64;55.16;99073.16;4930268;29;20728;-75
2022/01/16 05:47:56;;;;;;;2.65;1.10;;;;;;;-0.80;55.57;99053.16;4912575;29;20074;-74
2022/01/16 05:50:23;;;;;;;1.63;0.88;;;;;;;-0.74;55.45;99071.19;4929955;29;20118;-75
2022/01/16 05:52:50;;;;;;;2.33;0.90;;;;;;;-0.81;54.50;99080.41;4915095;29;20783;-74
2022/01/16 05:55:17;;;;;;;2.67;0.93;;;;;;;-0.80;55.10;99096.59;4898484;29;20129;-75
2022/01/16 05:57:43;;;;;;;1.98;1.00;;;;;;;-0.73;55.92;99113.81;4914153;29;20517;-76
2022/01/16 06:00:14;;;;;;;2.00;0.90;;;;;;;-0.79;54.84;99093.22;4899785;29;21012;-76
2022/01/16 06:02:41;;;;;;;0.90;0.60;;;;;;;-0.81;54.66;99112.75;4915823;29;20091;-75
2022/01/16 06:05:09;;;;;;;1.98;0.98;;;;;;;-0.87;55.04;99116.00;4915573;29;20082;-78
2022/01/16 06:07:40;;;;;;;1.42;0.70;;;;;;;-0.99;55.35;99096.09;4915501;29;20042;-74
2022/01/16 06:10:20;;;;;;;4.15;0.98;;;;;;;-0.82;55.48;99124.66;4914881;29;20075;-76
2022/01/16 06:12:46;;;;;;;1.23;0.77;;;;;;;-0.97;55.19;99089.34;4897258;29;20590;-75
2022/01/16 06:15:18;;;;;;;1.42;0.80;;;;;;;-0.82;54.85;99119.53;4899493;29;20139;-75
2022/01/16 06:17:51;;;;;;;1.45;0.77;;;;;;;-0.81;55.39;99120.44;4892513;29;20048;-77
2022/01/16 06:20:33;;;;;;;2.50;0.90;;;;;;;-1.33;55.15;99059.47;4915493;29;20381;-75
2022/01/16 06:23:03;;;;;;;3.00;0.70;;;;;;;-1.19;54.64;99076.84;4897537;29;20044;-75
2022/01/16 06:25:29;;;;;;;1.70;0.63;;;;;;;-0.88;54.83;99121.94;4912710;29;20451;-77
2022/01/16 06:27:55;;;;;;;1.42;0.80;;;;;;;-0.97;55.23;99099.56;4901273;29;20047;-76
2022/01/16 06:30:31;;;;;;;1.58;0.80;;;;;;;-0.87;55.13;99115.16;4918032;29;20066;-75
2022/01/16 06:36:12;;;;;;;1.10;0.68;;;;;;;-1.27;54.67;99044.31;4897147;29;20098;-75
2022/01/16 06:38:37;;;;;;;0.85;0.60;;;;;;;-1.10;54.52;99077.94;4915707;29;20048;-75
2022/01/16 06:41:12;;;;;;;1.45;0.75;;;;;;;-0.86;54.81;99104.09;4928744;29;20124;-75
2022/01/16 06:43:39;;;;;;;1.42;0.70;;;;;;;-0.87;54.65;99087.91;4900375;29;20080;-76
2022/01/16 06:46:07;;;;;;;1.17;0.60;;;;;;;-0.82;54.48;99098.25;4934204;29;20047;-77
2022/01/16 06:48:46;;;;;;;2.75;0.90;;;;;;;-0.86;55.13;99089.63;4900598;29;20043;-76
2022/01/16 06:51:23;;;;;;;2.25;0.80;;;;;;;-1.19;54.68;99024.09;4925142;29;20039;-75
2022/01/16 06:53:53;;;;;;;1.38;1.02;;;;;;;-1.03;54.69;99060.22;4923673;29;20047;-74
2022/01/16 06:56:29;;;;;;;2.25;0.70;;;;;;;-1.08;54.22;99053.31;4920648;29;20047;-78
2022/01/16 06:58:59;;;;;;;1.13;0.70;;;;;;;-1.04;54.47;99043.19;4924416;29;20047;-79
2022/01/16 07:01:29;;;;;;;1.50;0.70;;;;;;;-1.00;54.68;99047.53;4932965;29;20047;-78
2022/01/16 07:04:27;;;;;;;;;;;;;;;;;;;;;
2022/01/16 07:07:01;;;;;;;2.78;1.75;;;;;;;-0.33;54.21;99139.50;4917697;29;20075;-75
2022/01/16 07:09:32;;;;;;;1.85;1.00;;;;;;;-0.34;53.91;99155.69;4899480;29;20075;-76
2022/01/16 07:11:58;;;;;;;1.58;0.70;;;;;;;-0.36;53.96;99167.56;4904163;29;20090;-77
2022/01/16 07:14:25;;;;;;;0.88;0.60;;;;;;;-0.33;54.16;99158.25;4907055;29;20067;-76
2022/01/16 07:16:55;;;;;;;2.42;0.70;;;;;;;-0.87;54.02;99054.69;4912871;29;20528;-75
2022/01/16 07:19:22;;;;;;;1.35;0.70;;;;;;;-0.29;53.89;99160.91;4904039;29;20053;-75
2022/01/16 07:21:54;;;;;;;1.13;0.73;;;;;;;-1.30;53.67;98974.44;4895022;29;20053;-77
2022/01/16 07:24:27;;;;;;;1.50;0.73;;;;;;;-0.66;53.68;99082.47;4893968;29;20051;-77
2022/01/16 07:27:00;;;;;;;0.93;0.70;;;;;;;-0.12;53.32;99167.31;4883098;29;20044;-79
2022/01/16 07:29:38;;;;;;;;;;;;;;;-0.27;53.42;99172.91;4897480;29;20483;-78
2022/01/16 07:32:10;;;;;;;1.70;0.80;;;;;;;-1.06;53.52;99048.25;4875978;29;19947;-82
2022/01/16 07:34:41;;;;;;;1.95;0.90;;;;;;;-0.79;53.23;99104.28;4888251;29;20040;-77
2022/01/16 07:37:07;;;;;;;1.20;0.73;;;;;;;-0.31;53.88;99166.84;4868609;29;20036;-77
2022/01/16 07:39:33;;;;;;;3.67;2.30;;;;;;;-0.32;53.45;99160.00;4890759;29;20509;-75
2022/01/16 07:42:11;;;;;;;1.85;1.08;;;;;;;-0.43;53.61;99143.53;4883339;29;20048;-77
2022/01/16 07:44:40;;;;;;;1.10;0.90;;;;;;;-0.24;53.84;99174.66;4880773;29;20462;-76
2022/01/16 07:47:09;;;;;;;1.55;0.90;;;;;;;-0.38;53.74;99144.50;4901836;29;20139;-76
2022/01/16 07:49:37;;;;;;;1.73;0.90;;;;;;;-0.21;53.76;99160.25;4867737;29;20041;-77
2022/01/16 07:52:03;;;;;;;1.77;0.80;;;;;;;-0.23;53.23;99144.03;4893955;29;20123;-77
2022/01/16 07:54:31;;;;;;;1.17;0.73;;;;;;;-0.12;53.01;99163.88;4894277;29;20029;-76
2022/01/16 07:56:57;;;;;;;1.23;0.70;;;;;;;0.06;54.08;99163.44;4879132;29;20045;-76
2022/01/16 07:59:28;;;;;;;0.75;0.60;;;;;;;0.24;53.15;99166.44;4890162;29;20342;-77
2022/01/16 08:02:13;;;;;;;;;;;;;;;0.70;53.45;99160.56;4880055;29;20075;-76
2022/01/16 08:04:51;;;;;;;1.80;1.10;;;;;;;0.53;53.34;98993.78;4884850;29;20329;-77
2022/01/16 08:07:29;;;;;;;2.25;0.80;;;;;;;0.59;51.74;98997.31;4893829;29;20036;-78
2022/01/16 08:10:13;;;;;;;2.47;1.20;;;;;;;1.39;51.54;99143.09;4906866;29;20516;-77
2022/01/16 08:12:48;;;;;;;1.40;1.00;;;;;;;0.61;51.54;99074.19;4894994;29;20036;-78
2022/01/16 08:15:30;;;;;;;1.92;1.08;;;;;;;0.55;51.57;99082.59;4916493;23;20212;-79
2022/01/16 08:17:56;;;;;;;2.15;1.00;;;;;;;1.20;51.61;99181.22;4948276;29;20038;-76
2022/01/16 08:20:25;;;;;;;1.60;0.80;;;;;;;0.54;51.60;99062.09;4949796;29;20043;-76
2022/01/16 08:22:58;;;;;;;1.55;0.73;;;;;;;1.38;51.55;99149.06;4941603;29;20043;-77
2022/01/16 08:25:30;;;;;;;1.90;0.90;;;;;;;0.75;51.53;99026.63;4901721;29;20054;-78
2022/01/16 08:28:33;;;;;;;1.27;0.70;;;;;;;1.83;51.39;99218.22;4915546;29;20066;-79
2022/01/16 08:31:12;;;;;;;1.17;0.80;;;;;;;1.01;51.07;99021.13;4932499;29;20047;-78
2022/01/16 08:33:45;;;;;;;1.63;0.80;;;;;;;2.20;50.37;99186.34;4911489;29;20063;-78
2022/01/16 08:36:14;;;;;;;1.45;0.80;;;;;;;1.61;50.70;99100.72;4924569;29;20032;-79
2022/01/16 08:39:11;;;;;;;1.15;0.75;;;;;;;2.15;49.92;99181.94;4922993;29;20047;-79
2022/01/16 08:41:37;;;;;;;1.40;0.80;;;;;;;1.98;50.04;99154.31;4909724;29;20039;-79
2022/01/16 08:44:07;;;;;;;2.22;1.02;;;;;;;1.55;49.36;99123.69;4935026;29;20044;-77
2022/01/16 08:46:34;;;;;;;1.10;0.80;;;;;;;1.77;49.53;99176.22;4929424;29;20048;-78
2022/01/16 08:49:09;;;;;;;2.25;0.80;;;;;;;1.07;49.86;99081.00;4914356;29;21007;-77
2022/01/16 08:51:41;;;;;;;1.02;0.65;;;;;;;0.68;49.76;99029.91;4901363;29;20044;-80
2022/01/16 08:54:10;;;;;;;1.90;0.80;;;;;;;1.39;49.22;99145.66;4937411;29;20039;-79
2022/01/16 08:56:40;;;;;;;1.85;1.00;;;;;;;1.74;49.02;99198.41;4936622;29;20228;-78
2022/01/16 08:59:09;;;;;;;1.38;1.10;;;;;;;1.44;49.60;99194.47;4896240;29;20468;-78
2022/01/16 09:01:38;;;;;;;4.20;2.47;;;;;;;1.09;49.94;99113.50;4925134;29;20043;-77
2022/01/16 09:04:05;;;;;;;1.60;1.10;;;;;;;0.64;49.45;99029.84;4910517;29;20508;-80
2022/01/16 09:06:32;;;;;;;1.92;1.00;;;;;;;1.50;49.67;99144.13;4933621;29;20051;-77
2022/01/16 09:09:02;;;;;;;1.58;0.90;;;;;;;0.97;49.19;99069.72;4934871;29;20046;-78
2022/01/16 09:11:29;;;;;;;1.67;0.80;;;;;;;1.60;49.07;99193.03;4934551;29;20443;-77
2022/01/16 09:14:05;;;;;;;1.38;0.90;;;;;;;1.27;49.34;99128.38;4924543;29;20044;-81
2022/01/16 09:16:34;;;;;;;1.83;0.80;;;;;;;1.32;49.62;99131.00;4934578;29;20052;-79
2022/01/16 09:19:46;;;;;;;2.53;1.58;;;;;;;1.63;48.72;99205.94;4890471;29;20044;-78
2022/01/16 09:27:26;;;;;;;1.27;0.85;;;;;;;0.85;49.23;99096.00;4869508;29;20056;-85
2022/01/16 09:29:55;;;;;;;1.75;0.80;;;;;;;0.51;49.46;99033.84;4886653;29;20419;-79
2022/01/16 09:32:25;;;;;;;1.00;0.60;;;;;;;1.08;49.11;99124.59;4914777;29;20036;-81
2022/01/16 09:34:56;;;;;;;1.25;0.73;;;;;;;1.69;49.00;99216.28;4892275;29;20048;-77
2022/01/16 09:37:41;;;;;;;1.20;0.80;;;;;;;1.02;49.36;99098.84;4936184;29;20094;-82
2022/01/16 09:43:07;;;;;;;2.25;0.70;;;;;;;0.79;49.12;99083.91;4936259;29;20054;-80
2022/01/16 09:45:33;;;;;;;2.33;0.82;;;;;;;1.55;49.67;99200.63;4898424;29;20046;-79
2022/01/16 09:48:27;;;;;;;1.05;0.70;;;;;;;0.21;48.88;98978.69;4932232;29;20483;-78
2022/01/16 09:51:10;;;;;;;2.47;0.63;;;;;;;1.04;48.56;99092.06;4925762;29;20055;-79
2022/01/16 09:53:44;;;;;;;1.15;0.60;;;;;;;1.57;49.18;99131.44;4934040;29;20463;-78
2022/01/16 09:56:15;;;;;;;1.40;0.70;;;;;;;1.89;48.69;99156.72;4936389;29;20142;-80
2022/01/16 09:59:23;;;;;;;1.30;1.00;;;;;;;1.19;48.97;99024.81;4931180;29;20047;-77
2022/01/16 10:01:47;;;;;;;0.73;0.63;;;;;;;1.94;48.22;99126.88;4929768;29;20078;-78
2022/01/16 10:04:40;;;;;;;2.10;0.93;;;;;;;2.46;48.04;99178.13;4952961;29;20485;-79
2022/01/16 10:07:17;;;;;;;2.03;1.08;;;;;;;3.18;48.28;99154.19;4942609;29;20055;-81
2022/01/16 10:09:46;;;;;;;1.00;0.70;;;;;;;3.45;47.43;99171.59;4919593;29;20133;-78
2022/01/16 10:12:33;;;;;;;1.08;0.70;;;;;;;4.68;49.29;99155.31;4933010;29;20047;-80
2022/01/16 10:15:16;;;;;;;1.88;1.08;;;;;;;6.06;49.06;99051.44;4933837;29;20058;-78
2022/01/16 10:17:48;;;;;;;1.58;0.80;;;;;;;7.84;44.68;99153.97;4897078;29;20131;-81
2022/01/16 10:20:18;;;;;;;0.82;0.77;;;;;;;6.27;44.15;98980.75;4891977;29;21214;-79
2022/01/16 10:23:01;;;;;;;2.45;1.00;;;;;;;6.00;43.28;99172.84;4902721;29;20071;-79
2022/01/16 10:25:52;;;;;;;;;;;;;;;5.07;43.76;99158.03;4903227;29;20513;-78
2022/01/16 10:28:30;;;;;;;2.53;1.30;;;;;;;3.19;43.91;98978.50;4924638;29;19982;-78
2022/01/16 10:31:26;;;;;;;2.55;1.17;;;;;;;4.12;44.91;99154.13;4897266;29;20078;-79
2022/01/16 10:34:35;;;;;;;1.75;1.30;;;;;;;3.54;44.93;99098.78;4898269;29;20496;-78
2022/01/16 10:37:30;;;;;;;4.00;1.30;;;;;;;3.70;43.91;99151.25;4854035;29;20053;-78
2022/01/16 10:44:01;;;;;;;2.17;1.15;;;;;;;3.42;44.89;99139.84;4886857;29;20513;-81
2022/01/16 10:49:40;;;;;;;2.17;1.40;;;;;;;2.45;44.55;99003.47;4934336;29;20069;-82
2022/01/16 10:52:29;;;;;;;1.63;1.23;;;;;;;2.09;44.40;98939.75;4962712;29;20054;-82
2022/01/16 10:55:13;;;;;;;2.85;1.30;;;;;;;3.25;44.74;99163.66;4929123;29;20398;-79
2022/01/16 11:00:54;;;;;;;2.17;1.13;;;;;;;2.68;44.92;99115.06;4941950;29;20061;-79
2022/01/16 11:03:39;;;;;;;1.67;1.10;;;;;;;3.05;45.28;99165.16;4954668;29;20043;-81
2022/01/16 11:07:26;;;;;;;1.98;1.30;;;;;;;1.98;44.87;98992.66;4938512;29;21564;-82
2022/01/16 11:10:43;;;;;;;2.00;1.35;;;;;;;2.52;44.80;99172.22;4933141;28;20047;-79
2022/01/16 11:13:14;;;;;;;2.70;1.38;;;;;;;2.45;45.75;99163.56;4936708;29;20127;-83
2022/01/16 11:16:03;;;;;;;2.28;1.40;;;;;;;1.50;46.11;99009.94;4945775;29;20039;-82
2022/01/16 11:18:49;;;;;;;2.67;1.70;;;;;;;1.87;45.73;99082.31;4934686;29;20067;-79
2022/01/16 11:28:33;;;;;;;3.42;1.50;;;;;;;2.47;46.02;99179.00;4920829;29;20470;-83
2022/01/16 11:31:12;;;;;;;4.10;1.60;;;;;;;1.75;46.31;99088.13;4944507;29;20019;-82
2022/01/16 11:34:29;;;;;;;;;;;;;;;;;;;;;
2022/01/16 11:41:59;;;;;;;2.38;1.42;;;;;;;0.80;47.20;98985.72;4869152;29;20124;-83
2022/01/16 11:48:09;;;;;;;2.67;1.30;;;;;;;1.43;47.13;99124.38;4916897;29;20079;-82
2022/01/16 11:50:35;;;;;;;2.25;1.52;;;;;;;1.31;47.80;99096.81;4940466;29;20066;-82
2022/01/16 11:53:08;;;;;;;1.77;1.10;;;;;;;1.26;47.68;99077.06;4943402;29;20043;-80
2022/01/16 11:55:51;;;;;;;2.22;1.40;;;;;;;0.69;47.31;98994.94;4942669;29;20119;-82
2022/01/16 11:58:27;;;;;;;3.28;1.50;;;;;;;0.75;47.83;99000.19;4942235;29;20455;-84
2022/01/16 12:00:57;;;;;;;4.28;1.70;;;;;;;1.23;47.83;99106.06;4942408;29;20105;-81
2022/01/16 12:03:43;;;;;;;3.75;1.40;;;;;;;1.89;48.00;99219.19;4933810;29;20045;-79
2022/01/16 12:10:43;;;;;;;2.65;1.52;;;;;;;1.76;48.37;99194.19;4871730;29;20131;-81
2022/01/16 12:13:53;;;;;;;1.88;1.13;;;;;;;1.67;47.90;99184.59;4922415;29;20450;-81
2022/01/16 12:17:28;;;;;;;2.83;1.10;;;;;;;1.66;48.71;99180.31;4917521;29;20134;-79
2022/01/16 12:20:23;;;;;;;1.42;1.10;;;;;;;1.78;48.53;99179.66;4936365;29;20743;-79
2022/01/16 12:23:12;;;;;;;2.53;1.77;;;;;;;1.79;48.15;99174.56;4918106;29;20044;-81
2022/01/16 12:25:54;;;;;;;3.70;1.60;;;;;;;1.08;48.29;99055.41;4949521;28;20605;-80
2022/01/16 12:28:26;;;;;;;3.85;1.42;;;;;;;1.18;48.43;99052.16;4926569;29;20438;-83
2022/01/16 12:31:03;;;;;;;1.40;1.23;;;;;;;1.88;48.34;99172.97;4959598;29;20074;-80
2022/01/16 12:34:08;;;;;;;;;;;;;;;;;;;;;
2022/01/16 12:37:28;;;;;;;3.20;1.38;;;;;;;1.90;48.36;99185.00;4937135;29;20047;-85
2022/01/16 12:40:28;;;;;;;2.60;1.52;;;;;;;1.73;48.11;99191.56;4943858;29;20054;-83
2022/01/16 12:43:30;;;;;;;3.28;1.52;;;;;;;0.51;48.44;98977.53;4943920;29;20062;-81
2022/01/16 12:46:54;;;;;;;1.80;1.33;;;;;;;1.17;47.96;99093.13;4925747;29;20048;-83
2022/01/16 12:50:33;;;;;;;3.45;1.35;;;;;;;0.24;48.09;98961.69;4952977;29;20195;-81
2022/01/16 12:56:41;;;;;;;2.42;1.40;;;;;;;1.37;48.74;99115.69;4938123;29;20043;-84
2022/01/16 12:59:47;;;;;;;3.35;1.70;;;;;;;0.96;48.33;99055.19;4938819;29;20039;-83
2022/01/16 13:02:14;;;;;;;4.78;1.85;;;;;;;0.74;48.56;99047.13;4890793;29;20709;-82
2022/01/16 13:05:09;;;;;;;2.13;1.50;;;;;;;1.29;48.28;99169.41;4944698;29;20039;-82
2022/01/16 13:07:42;;;;;;;2.88;1.73;;;;;;;0.70;48.77;99073.50;4930785;29;20148;-81
2022/01/16 13:10:08;;;;;;;5.15;1.80;;;;;;;0.87;49.05;99109.69;4926539;29;20040;-83
2022/01/16 13:12:53;;;;;;;4.50;1.88;;;;;;;1.01;48.63;99172.31;4924748;29;20039;-82
2022/01/16 13:15:28;;;;;;;3.55;1.70;;;;;;;-0.24;49.48;99001.66;4971451;29;20102;-83
2022/01/16 13:18:11;;;;;;;3.15;1.65;;;;;;;0.59;49.70;99155.22;4961453;29;20054;-83
2022/01/16 13:21:07;;;;;;;2.92;1.55;;;;;;;0.27;50.31;99127.22;4948093;29;20059;-82
2022/01/16 13:24:06;;;;;;;3.40;1.42;;;;;;;-0.35;50.11;99026.09;4918583;29;20062;-83
2022/01/16 13:26:34;;;;;;;2.40;1.30;;;;;;;-0.10;50.30;99081.22;4907865;29;20046;-80
2022/01/16 13:29:58;;;;;;;3.40;1.67;;;;;;;0.25;50.96;99165.59;4930672;29;20051;-80
2022/01/16 13:33:01;;;;;;;6.75;1.73;;;;;;;0.22;51.01;99154.44;4912288;29;20055;-79
2022/01/16 13:36:12;;;;;;;6.00;1.83;;;;;;;-0.58;50.29;99046.03;4913375;29;20043;-82
2022/01/16 13:38:58;;;;;;;5.32;2.17;;;;;;;0.04;50.71;99185.56;4939028;29;20101;-82
2022/01/16 13:42:00;;;;;;;4.57;2.03;;;;;;;-0.34;51.19;99112.22;4930712;29;20107;-80